Time;durP1;ratioP1;P1;durP2;ratioP2;P2;SDS_P1;SDS_P2;PMS_P1;PMS_P2;Temp;Humidity;BMP_temperature;BMP_pressure;BME280_temperature;BME280_humidity;BME280_pressure;Samples;Min_cycle;Max_cycle;Signal;HPM_P1;HPM_P2
2023/04/17 00:01:26;;;;;;;9.50;7.73;;;;;;;;;;5111274;28;20281;-76
2023/04/17 00:03:56;;;;;;;10.23;7.80;;;;;;;;;;5112014;28;20227;-75
2023/04/17 00:06:26;;;;;;;9.20;7.30;;;;;;;;;;5111835;28;20203;-75
2023/04/17 00:08:53;;;;;;;9.23;7.40;;;;;;;;;;5112164;28;20288;-75
2023/04/17 00:11:20;;;;;;;10.40;7.80;;;;;;;;;;5111098;28;20190;-76
2023/04/17 00:13:47;;;;;;;9.70;7.23;;;;;;;;;;5111613;28;20237;-76
2023/04/17 00:16:16;;;;;;;9.23;7.10;;;;;;;;;;5111074;28;20297;-76
2023/04/17 00:18:43;;;;;;;8.93;7.80;;;;;;;;;;5111870;28;20288;-75
2023/04/17 00:21:10;;;;;;;8.93;7.20;;;;;;;;;;5111755;28;20281;-76
2023/04/17 00:23:37;;;;;;;11.20;7.50;;;;;;;;;;5111937;28;20197;-75
2023/04/17 00:26:05;;;;;;;10.10;7.50;;;;;;;;;;5111350;28;20276;-76
2023/04/17 00:28:33;;;;;;;8.70;7.43;;;;;;;;;;5111848;28;20217;-76
2023/04/17 00:31:00;;;;;;;8.87;7.27;;;;;;;;;;5111471;28;20288;-75
2023/04/17 00:33:28;;;;;;;8.60;7.70;;;;;;;;;;5111213;28;20225;-75
2023/04/17 00:35:56;;;;;;;9.33;7.77;;;;;;;;;;5111006;28;20225;-75
2023/04/17 00:38:23;;;;;;;11.20;8.03;;;;;;;;;;5111176;28;20233;-75
2023/04/17 00:40:50;;;;;;;11.40;8.47;;;;;;;;;;5110822;28;20312;-76
2023/04/17 00:43:18;;;;;;;8.83;7.93;;;;;;;;;;5111433;28;20202;-75
2023/04/17 00:45:46;;;;;;;9.77;8.50;;;;;;;;;;5111130;28;20236;-75
2023/04/17 00:48:15;;;;;;;10.00;7.93;;;;;;;;;;5111543;28;20202;-75
2023/04/17 00:50:44;;;;;;;9.10;8.20;;;;;;;;;;5111447;28;20318;-75
2023/04/17 00:53:12;;;;;;;12.03;8.63;;;;;;;;;;5111252;28;20255;-75
2023/04/17 00:55:40;;;;;;;10.77;7.90;;;;;;;;;;5110557;28;20194;-75
2023/04/17 00:58:07;;;;;;;11.20;8.73;;;;;;;;;;5114936;28;20191;-75
2023/04/17 01:00:35;;;;;;;10.13;8.50;;;;;;;;;;5114997;28;20225;-76
2023/04/17 01:03:02;;;;;;;10.70;7.83;;;;;;;;;;5115356;28;20280;-75
2023/04/17 01:05:30;;;;;;;10.47;7.90;;;;;;;;;;5115786;28;20292;-75
2023/04/17 01:07:59;;;;;;;9.10;7.97;;;;;;;;;;5115280;28;20277;-75
2023/04/17 01:10:26;;;;;;;9.30;7.10;;;;;;;;;;5114794;28;20288;-75
2023/04/17 01:13:02;;;;;;;10.57;7.87;;;;;;;;;;5114700;28;20284;-75
2023/04/17 01:15:29;;;;;;;9.30;8.23;;;;;;;;;;5114558;28;20730;-75
2023/04/17 01:17:56;;;;;;;11.13;8.60;;;;;;;;;;5114879;28;20295;-75
2023/04/17 01:20:29;;;;;;;8.47;7.60;;;;;;;;;;5115582;28;20205;-75
2023/04/17 01:22:57;;;;;;;11.10;7.70;;;;;;;;;;5115036;28;20193;-75
2023/04/17 01:25:25;;;;;;;11.03;8.37;;;;;;;;;;5114711;28;20212;-74
2023/04/17 01:27:53;;;;;;;10.30;8.60;;;;;;;;;;5114180;28;20741;-75
2023/04/17 01:30:20;;;;;;;10.13;8.33;;;;;;;;;;5115083;28;20651;-75
2023/04/17 01:32:47;;;;;;;9.53;7.90;;;;;;;;;;5114409;28;20739;-75
2023/04/17 01:35:14;;;;;;;12.80;8.53;;;;;;;;;;5114561;28;20780;-75
2023/04/17 01:37:41;;;;;;;10.67;8.13;;;;;;;;;;5114425;28;20200;-75
2023/04/17 01:40:09;;;;;;;9.00;7.67;;;;;;;;;;5114190;28;20204;-75
2023/04/17 01:42:38;;;;;;;9.40;8.30;;;;;;;;;;5113991;28;20202;-75
2023/04/17 01:45:06;;;;;;;9.30;7.73;;;;;;;;;;5114665;28;20291;-75
2023/04/17 01:47:33;;;;;;;9.23;7.87;;;;;;;;;;5114535;28;20277;-75
2023/04/17 01:50:00;;;;;;;9.80;8.40;;;;;;;;;;5114266;28;20202;-75
2023/04/17 01:52:27;;;;;;;9.57;7.87;;;;;;;;;;5114611;28;20202;-75
2023/04/17 01:54:55;;;;;;;10.07;8.00;;;;;;;;;;5114482;28;20279;-75
2023/04/17 01:57:22;;;;;;;10.07;8.17;;;;;;;;;;5113620;27;20394;-76
2023/04/17 01:59:50;;;;;;;9.43;8.43;;;;;;;;;;5114227;28;20193;-76
2023/04/17 02:02:17;;;;;;;10.70;8.67;;;;;;;;;;5114053;28;20288;-74
2023/04/17 02:04:45;;;;;;;9.80;8.80;;;;;;;;;;5113867;28;20201;-75
2023/04/17 02:07:12;;;;;;;11.33;9.10;;;;;;;;;;5113543;28;20198;-75
2023/04/17 02:09:39;;;;;;;15.10;9.40;;;;;;;;;;5113455;28;20228;-75
2023/04/17 02:12:07;;;;;;;14.10;9.60;;;;;;;;;;5113434;28;20185;-75
2023/04/17 02:14:34;;;;;;;10.47;8.70;;;;;;;;;;5112796;28;20309;-75
2023/04/17 02:17:02;;;;;;;11.77;9.60;;;;;;;;;;5113531;28;20197;-75
2023/04/17 02:19:29;;;;;;;9.93;8.60;;;;;;;;;;5113034;28;20232;-74
2023/04/17 02:21:57;;;;;;;12.67;8.83;;;;;;;;;;5113256;28;20189;-75
2023/04/17 02:24:24;;;;;;;10.67;9.33;;;;;;;;;;5113234;28;20244;-75
2023/04/17 02:26:51;;;;;;;9.53;8.50;;;;;;;;;;5113105;28;20279;-75
2023/04/17 02:29:18;;;;;;;11.30;8.90;;;;;;;;;;5113581;28;20230;-75
2023/04/17 02:31:45;;;;;;;10.00;9.00;;;;;;;;;;5105662;28;20206;-75
2023/04/17 02:34:14;;;;;;;10.43;9.33;;;;;;;;;;5100854;28;20332;-75
2023/04/17 02:36:41;;;;;;;11.13;9.07;;;;;;;;;;5092833;28;20240;-76
2023/04/17 02:39:08;;;;;;;11.23;9.13;;;;;;;;;;5091935;28;20285;-75
2023/04/17 02:41:36;;;;;;;10.57;9.03;;;;;;;;;;5092351;28;20329;-75
2023/04/17 02:44:03;;;;;;;10.27;9.07;;;;;;;;;;5092883;28;20232;-75
2023/04/17 02:46:30;;;;;;;12.23;9.33;;;;;;;;;;5092984;28;20295;-74
2023/04/17 02:48:57;;;;;;;12.67;9.87;;;;;;;;;;5093017;28;20241;-75
2023/04/17 02:51:26;;;;;;;11.00;9.37;;;;;;;;;;5092559;28;20292;-75
2023/04/17 02:53:53;;;;;;;11.83;8.87;;;;;;;;;;5092691;28;20793;-75
2023/04/17 02:56:20;;;;;;;10.23;9.13;;;;;;;;;;5091967;28;20656;-75
2023/04/17 02:58:48;;;;;;;14.37;10.57;;;;;;;;;;5092851;28;20681;-74
2023/04/17 03:01:15;;;;;;;12.97;9.93;;;;;;;;;;5092785;28;20365;-74
2023/04/17 03:03:43;;;;;;;11.87;10.20;;;;;;;;;;5092356;28;20789;-74
2023/04/17 03:06:10;;;;;;;14.53;11.53;;;;;;;;;;5092738;28;20262;-75
2023/04/17 03:08:39;;;;;;;13.17;11.27;;;;;;;;;;5092713;28;20201;-74
2023/04/17 03:11:06;;;;;;;15.80;11.07;;;;;;;;;;5092484;28;20813;-75
2023/04/17 03:13:35;;;;;;;13.93;11.23;;;;;;;;;;5101350;28;20728;-75
2023/04/17 03:16:03;;;;;;;13.90;11.23;;;;;;;;;;5112425;28;20223;-75
2023/04/17 03:18:30;;;;;;;14.27;11.40;;;;;;;;;;5112329;28;20732;-75
2023/04/17 03:20:58;;;;;;;14.77;11.33;;;;;;;;;;5112852;28;20203;-74
2023/04/17 03:23:25;;;;;;;14.00;11.27;;;;;;;;;;5112485;28;20221;-74
2023/04/17 03:25:54;;;;;;;15.30;11.87;;;;;;;;;;5112593;28;20289;-77
2023/04/17 03:28:22;;;;;;;14.73;11.17;;;;;;;;;;5112424;28;20208;-75
2023/04/17 03:30:50;;;;;;;14.53;11.37;;;;;;;;;;5112712;28;20661;-75
2023/04/17 03:33:17;;;;;;;13.73;11.07;;;;;;;;;;5111856;28;20190;-75
2023/04/17 03:35:45;;;;;;;14.33;11.50;;;;;;;;;;5112640;28;20224;-75
2023/04/17 03:38:12;;;;;;;13.93;11.53;;;;;;;;;;5110941;28;20209;-74
2023/04/17 03:40:39;;;;;;;12.97;11.00;;;;;;;;;;5111652;28;20332;-74
2023/04/17 03:43:08;;;;;;;14.77;12.10;;;;;;;;;;5111944;28;20228;-75
2023/04/17 03:45:35;;;;;;;14.13;11.87;;;;;;;;;;5112430;28;20190;-75
2023/04/17 03:48:03;;;;;;;15.03;11.37;;;;;;;;;;5112111;28;20197;-75
2023/04/17 03:50:30;;;;;;;14.10;11.90;;;;;;;;;;5111065;28;20291;-75
2023/04/17 03:52:57;;;;;;;17.17;10.77;;;;;;;;;;5111385;28;20288;-74
2023/04/17 03:55:24;;;;;;;12.33;10.67;;;;;;;;;;5111064;28;20264;-75
2023/04/17 03:57:51;;;;;;;12.00;10.70;;;;;;;;;;5111668;28;20257;-75
2023/04/17 04:00:20;;;;;;;10.53;9.10;;;;;;;;;;5111921;28;20273;-74
2023/04/17 04:02:48;;;;;;;10.93;8.87;;;;;;;;;;5112233;28;20200;-75
2023/04/17 04:05:15;;;;;;;11.03;9.00;;;;;;;;;;5111418;28;20281;-75
2023/04/17 04:07:42;;;;;;;12.20;9.30;;;;;;;;;;5111620;28;20220;-74
2023/04/17 04:10:10;;;;;;;10.73;9.60;;;;;;;;;;5111427;28;20729;-74
2023/04/17 04:12:37;;;;;;;11.83;9.57;;;;;;;;;;5111746;28;20548;-74
2023/04/17 04:15:05;;;;;;;11.53;10.13;;;;;;;;;;5111404;28;20321;-75
2023/04/17 04:17:34;;;;;;;12.67;11.13;;;;;;;;;;5110912;28;20221;-75
2023/04/17 04:20:01;;;;;;;13.33;11.00;;;;;;;;;;5111796;28;20658;-74
2023/04/17 04:22:29;;;;;;;13.47;10.63;;;;;;;;;;5111538;28;20228;-75
2023/04/17 04:24:56;;;;;;;13.17;11.30;;;;;;;;;;5112134;28;20210;-75
2023/04/17 04:27:24;;;;;;;13.70;11.07;;;;;;;;;;5111491;28;20244;-74
2023/04/17 04:29:51;;;;;;;12.63;10.87;;;;;;;;;;5111564;28;20252;-74
2023/04/17 04:32:18;;;;;;;14.67;11.00;;;;;;;;;;5114950;28;20201;-74
2023/04/17 04:34:47;;;;;;;14.90;11.40;;;;;;;;;;5115976;28;20320;-74
2023/04/17 04:37:14;;;;;;;15.20;10.53;;;;;;;;;;5114979;28;20217;-75
2023/04/17 04:39:42;;;;;;;14.10;11.23;;;;;;;;;;5115390;28;20190;-75
2023/04/17 04:42:09;;;;;;;14.53;11.43;;;;;;;;;;5115219;28;20710;-75
2023/04/17 04:44:37;;;;;;;13.43;11.30;;;;;;;;;;5115677;28;20290;-74
2023/04/17 04:47:04;;;;;;;13.63;11.07;;;;;;;;;;5115971;28;20294;-75
2023/04/17 04:49:31;;;;;;;12.77;10.87;;;;;;;;;;5115520;28;20285;-75
2023/04/17 04:51:59;;;;;;;13.80;10.90;;;;;;;;;;5115230;28;20286;-74
2023/04/17 04:54:27;;;;;;;15.97;11.17;;;;;;;;;;5115386;28;20703;-74
2023/04/17 04:56:54;;;;;;;14.63;10.70;;;;;;;;;;5115322;28;20280;-74
2023/04/17 04:59:21;;;;;;;17.37;11.07;;;;;;;;;;5115209;28;20191;-75
2023/04/17 05:01:49;;;;;;;14.97;11.73;;;;;;;;;;5115626;28;20289;-75
2023/04/17 05:04:16;;;;;;;15.13;11.67;;;;;;;;;;5115228;28;20222;-74
2023/04/17 05:06:43;;;;;;;14.77;11.03;;;;;;;;;;5115046;28;20280;-74
2023/04/17 05:09:12;;;;;;;14.90;12.43;;;;;;;;;;5115262;28;20281;-75
2023/04/17 05:11:39;;;;;;;15.47;12.57;;;;;;;;;;5115241;28;20194;-75
2023/04/17 05:14:06;;;;;;;15.10;11.93;;;;;;;;;;5115274;28;20233;-75
2023/04/17 05:16:33;;;;;;;15.50;12.63;;;;;;;;;;5115245;28;20230;-73
2023/04/17 05:19:00;;;;;;;16.00;12.37;;;;;;;;;;5115004;28;20197;-74
2023/04/17 05:21:27;;;;;;;16.57;12.13;;;;;;;;;;5114296;28;20209;-74
2023/04/17 05:23:55;;;;;;;15.67;13.03;;;;;;;;;;5114917;28;20289;-74
2023/04/17 05:26:23;;;;;;;17.23;13.03;;;;;;;;;;5115026;28;20208;-74
2023/04/17 05:28:50;;;;;;;18.40;13.30;;;;;;;;;;5114827;28;20204;-75
2023/04/17 05:31:18;;;;;;;18.60;13.87;;;;;;;;;;5114713;28;20277;-72
2023/04/17 05:33:45;;;;;;;16.63;13.17;;;;;;;;;;5114955;27;20232;-75
2023/04/17 05:36:12;;;;;;;16.00;12.97;;;;;;;;;;5114166;28;20253;-74
2023/04/17 05:38:39;;;;;;;17.00;13.10;;;;;;;;;;5114530;27;20748;-74
2023/04/17 05:41:07;;;;;;;18.57;13.53;;;;;;;;;;5114525;28;20333;-74
2023/04/17 05:43:35;;;;;;;19.00;14.07;;;;;;;;;;5113696;28;20201;-74
2023/04/17 05:46:03;;;;;;;20.87;13.60;;;;;;;;;;5114505;28;20291;-75
2023/04/17 05:48:30;;;;;;;17.47;14.07;;;;;;;;;;5114357;28;20238;-75
2023/04/17 05:50:57;;;;;;;16.80;13.63;;;;;;;;;;5112391;28;20733;-75
2023/04/17 05:53:24;;;;;;;17.43;12.90;;;;;;;;;;5103888;28;20228;-76
2023/04/17 05:55:51;;;;;;;17.47;13.20;;;;;;;;;;5093160;28;20233;-77
2023/04/17 05:58:19;;;;;;;16.03;13.03;;;;;;;;;;5093568;28;20192;-76
2023/04/17 06:00:47;;;;;;;16.00;12.87;;;;;;;;;;5094143;28;20194;-77
2023/04/17 06:03:15;;;;;;;17.47;12.80;;;;;;;;;;5093816;28;20287;-77
2023/04/17 06:05:42;;;;;;;17.53;13.03;;;;;;;;;;5093946;28;20203;-77
2023/04/17 06:08:10;;;;;;;16.10;13.80;;;;;;;;;;5093791;28;20278;-76
2023/04/17 06:10:37;;;;;;;14.97;13.37;;;;;;;;;;5093379;28;20232;-77
2023/04/17 06:13:04;;;;;;;18.47;13.47;;;;;;;;;;5098689;28;20646;-76
2023/04/17 06:15:31;;;;;;;16.10;13.67;;;;;;;;;;5113905;28;20337;-77
2023/04/17 06:18:00;;;;;;;18.40;14.70;;;;;;;;;;5113619;28;20258;-76
2023/04/17 06:20:27;;;;;;;19.03;14.73;;;;;;;;;;5114254;28;20306;-76
2023/04/17 06:22:55;;;;;;;17.57;15.63;;;;;;;;;;5113948;28;20225;-76
2023/04/17 06:25:23;;;;;;;17.13;14.07;;;;;;;;;;5113840;28;20657;-76
2023/04/17 06:27:50;;;;;;;18.43;13.83;;;;;;;;;;5114115;28;20292;-76
2023/04/17 06:30:17;;;;;;;15.87;12.93;;;;;;;;;;5113731;28;20284;-76
2023/04/17 06:32:44;;;;;;;16.20;13.17;;;;;;;;;;5113538;28;20205;-77
2023/04/17 06:35:13;;;;;;;17.73;13.43;;;;;;;;;;5113702;28;20331;-76
2023/04/17 06:37:40;;;;;;;17.67;13.37;;;;;;;;;;5113653;28;20736;-77
2023/04/17 06:40:08;;;;;;;20.20;12.97;;;;;;;;;;5114030;28;20285;-77
2023/04/17 06:42:35;;;;;;;15.83;12.57;;;;;;;;;;5113708;28;20247;-76
2023/04/17 06:45:02;;;;;;;15.03;12.70;;;;;;;;;;5113801;28;20655;-77
2023/04/17 06:47:29;;;;;;;12.93;11.60;;;;;;;;;;5113002;28;20198;-76
2023/04/17 06:49:58;;;;;;;17.70;12.43;;;;;;;;;;5113199;28;20235;-77
2023/04/17 06:52:27;;;;;;;13.33;10.77;;;;;;;;;;5113459;28;20216;-76
2023/04/17 06:54:55;;;;;;;11.93;10.37;;;;;;;;;;5112707;28;20731;-78
2023/04/17 06:57:22;;;;;;;11.67;10.27;;;;;;;;;;5113434;28;20202;-76
2023/04/17 06:59:49;;;;;;;11.90;9.60;;;;;;;;;;5113460;28;20221;-77
2023/04/17 07:02:16;;;;;;;11.03;9.83;;;;;;;;;;5112821;28;20281;-75
2023/04/17 07:04:44;;;;;;;10.17;9.10;;;;;;;;;;5113346;28;20588;-78
2023/04/17 07:07:11;;;;;;;10.30;9.27;;;;;;;;;;5113054;28;20200;-77
2023/04/17 07:09:41;;;;;;;9.80;8.87;;;;;;;;;;5113117;28;20300;-77
2023/04/17 07:12:08;;;;;;;9.63;8.60;;;;;;;;;;5113088;28;20197;-78
2023/04/17 07:14:37;;;;;;;10.02;9.02;;;;;;;;;;5113203;28;20233;-78
2023/04/17 07:17:04;;;;;;;10.02;8.35;;;;;;;;;;5112699;28;20236;-77
2023/04/17 07:19:31;;;;;;;10.05;9.05;;;;;;;;;;5112686;28;20193;-78
2023/04/17 07:21:59;;;;;;;10.70;9.00;;;;;;;;;;5112402;28;20280;-78
2023/04/17 07:24:26;;;;;;;27.27;9.98;;;;;;;;;;5112875;28;20194;-77
2023/04/17 07:26:55;;;;;;;33.55;10.20;;;;;;;;;;5112683;28;20647;-78
2023/04/17 07:29:23;;;;;;;11.50;9.20;;;;;;;;;;5112469;28;20194;-77
2023/04/17 07:31:50;;;;;;;14.40;9.00;;;;;;;;;;5111916;28;20892;-78
2023/04/17 07:34:17;;;;;;;11.00;8.00;;;;;;;;;;5112423;28;20750;-78
2023/04/17 07:36:44;;;;;;;10.27;8.30;;;;;;;;;;5112409;28;20229;-78
2023/04/17 07:39:11;;;;;;;9.13;7.93;;;;;;;;;;5112603;28;20189;-78
2023/04/17 07:41:38;;;;;;;10.80;8.05;;;;;;;;;;5112052;28;20275;-78
2023/04/17 07:44:07;;;;;;;9.63;7.90;;;;;;;;;;5112242;28;20288;-79
2023/04/17 07:46:34;;;;;;;9.25;8.30;;;;;;;;;;5111954;28;20276;-78
2023/04/17 07:49:01;;;;;;;9.05;7.82;;;;;;;;;;5112101;28;20292;-79
2023/04/17 07:51:30;;;;;;;8.52;7.25;;;;;;;;;;5112492;28;20292;-78
2023/04/17 07:53:57;;;;;;;8.93;7.70;;;;;;;;;;5111952;28;20701;-79
2023/04/17 07:56:26;;;;;;;8.50;7.40;;;;;;;;;;5112043;28;20305;-79
2023/04/17 07:58:57;;;;;;;7.85;7.05;;;;;;;;;;5112425;28;20601;-79
2023/04/17 08:01:26;;;;;;;7.78;6.97;;;;;;;;;;5111694;28;20736;-78
2023/04/17 08:03:54;;;;;;;8.02;7.18;;;;;;;;;;5111875;28;20200;-79
2023/04/17 08:06:21;;;;;;;7.78;6.90;;;;;;;;;;5112504;28;20198;-79
2023/04/17 08:08:48;;;;;;;7.57;6.68;;;;;;;;;;5111989;28;20284;-78
2023/04/17 08:11:15;;;;;;;8.50;6.55;;;;;;;;;;5111648;28;20197;-78
2023/04/17 08:13:42;;;;;;;8.25;5.70;;;;;;;;;;5111160;28;20292;-79
2023/04/17 08:16:10;;;;;;;8.18;6.20;;;;;;;;;;5111819;28;20248;-79
2023/04/17 08:18:40;;;;;;;7.15;6.15;;;;;;;;;;5111062;28;20201;-79
2023/04/17 08:21:08;;;;;;;7.38;6.43;;;;;;;;;;5112335;28;20196;-79
2023/04/17 08:23:35;;;;;;;7.80;6.15;;;;;;;;;;5112177;28;20193;-78
2023/04/17 08:26:02;;;;;;;7.57;6.35;;;;;;;;;;5111863;28;20224;-79
2023/04/17 08:28:30;;;;;;;8.38;6.10;;;;;;;;;;5111534;28;20194;-80
2023/04/17 08:30:57;;;;;;;8.07;6.13;;;;;;;;;;5112153;28;20557;-77
2023/04/17 08:33:25;;;;;;;7.50;5.80;;;;;;;;;;5111263;28;20194;-79
2023/04/17 08:35:54;;;;;;;8.25;6.90;;;;;;;;;;5111942;28;20745;-79
2023/04/17 08:38:21;;;;;;;8.02;6.40;;;;;;;;;;5111703;28;20277;-79
2023/04/17 08:40:50;;;;;;;9.68;6.93;;;;;;;;;;5111759;28;20264;-78
2023/04/17 08:43:19;;;;;;;7.70;6.85;;;;;;;;;;5112228;28;20606;-79
2023/04/17 08:45:51;;;;;;;8.38;6.45;;;;;;;;;;5111741;28;20201;-78
2023/04/17 08:48:18;;;;;;;8.45;6.68;;;;;;;;;;5111589;28;20927;-79
2023/04/17 08:50:48;;;;;;;8.20;6.07;;;;;;;;;;5111583;28;20293;-79
2023/04/17 08:53:16;;;;;;;7.03;6.03;;;;;;;;;;5111214;28;20204;-79
2023/04/17 08:55:44;;;;;;;7.93;5.82;;;;;;;;;;5111677;28;20228;-79
2023/04/17 08:58:12;;;;;;;7.60;5.43;;;;;;;;;;5111069;28;20225;-79
2023/04/17 09:00:40;;;;;;;9.85;5.88;;;;;;;;;;5111444;28;20204;-78
2023/04/17 09:03:08;;;;;;;5.72;5.22;;;;;;;;;;5111053;28;20205;-79
2023/04/17 09:05:36;;;;;;;7.07;5.20;;;;;;;;;;5111533;28;20284;-79
2023/04/17 09:08:07;;;;;;;6.22;4.80;;;;;;;;;;5111071;28;20579;-79
2023/04/17 09:10:40;;;;;;;7.10;5.85;;;;;;;;;;5111035;28;20281;-79
2023/04/17 09:13:07;;;;;;;6.90;5.30;;;;;;;;;;5110877;28;20292;-79
2023/04/17 09:15:35;;;;;;;7.38;5.63;;;;;;;;;;5111263;28;20313;-80
2023/04/17 09:18:02;;;;;;;8.18;5.32;;;;;;;;;;5113553;28;20204;-79
2023/04/17 09:20:29;;;;;;;9.07;5.78;;;;;;;;;;5115103;28;20620;-79
2023/04/17 09:23:00;;;;;;;7.05;4.50;;;;;;;;;;5114011;28;20229;-79
2023/04/17 09:25:28;;;;;;;7.25;4.93;;;;;;;;;;5114671;28;20201;-77
2023/04/17 09:28:02;;;;;;;7.53;5.10;;;;;;;;;;5114418;28;20292;-79
2023/04/17 09:30:36;;;;;;;9.90;5.38;;;;;;;;;;5115044;28;20225;-80
2023/04/17 09:33:04;;;;;;;7.50;5.47;;;;;;;;;;5114967;28;20199;-79
2023/04/17 09:35:31;;;;;;;6.38;5.18;;;;;;;;;;5114994;28;20197;-80
2023/04/17 09:37:59;;;;;;;5.40;4.57;;;;;;;;;;5114868;28;20280;-81
2023/04/17 09:40:27;;;;;;;5.53;4.50;;;;;;;;;;5114746;28;20197;-80
2023/04/17 09:42:57;;;;;;;6.88;4.65;;;;;;;;;;5114323;28;20193;-80
2023/04/17 09:45:25;;;;;;;7.53;4.72;;;;;;;;;;5114612;28;20229;-80
2023/04/17 09:47:55;;;;;;;8.45;5.07;;;;;;;;;;5114512;28;20194;-80
2023/04/17 09:50:23;;;;;;;8.57;5.63;;;;;;;;;;5114453;28;20289;-80
2023/04/17 09:52:51;;;;;;;6.70;5.43;;;;;;;;;;5114787;28;20204;-80
2023/04/17 09:55:21;;;;;;;6.32;5.53;;;;;;;;;;5114165;28;20198;-80
2023/04/17 09:57:49;;;;;;;7.35;5.18;;;;;;;;;;5114534;28;20225;-80
2023/04/17 10:00:19;;;;;;;8.93;5.50;;;;;;;;;;5114663;28;20236;-80
2023/04/17 10:02:47;;;;;;;6.53;5.20;;;;;;;;;;5114487;28;20225;-80
2023/04/17 10:05:15;;;;;;;6.80;5.22;;;;;;;;;;5114382;28;20226;-81
2023/04/17 10:07:42;;;;;;;9.32;4.80;;;;;;;;;;5114410;28;20724;-80
2023/04/17 10:10:10;;;;;;;6.93;4.93;;;;;;;;;;5113584;28;20288;-78
2023/04/17 10:12:39;;;;;;;7.88;5.38;;;;;;;;;;5110750;28;20197;-81
2023/04/17 10:15:07;;;;;;;6.30;5.40;;;;;;;;;;5114915;27;20280;-81
2023/04/17 10:17:36;;;;;;;9.20;5.68;;;;;;;;;;5114744;27;20221;-81
2023/04/17 10:20:22;;;;;;;10.30;5.50;;;;;;;;;;5118239;27;20965;-80
2023/04/17 10:22:53;;;;;;;6.30;5.57;;;;;;;;;;5111172;28;20189;-78
2023/04/17 10:25:22;;;;;;;7.70;5.97;;;;;;;;;;5110427;28;20197;-78
2023/04/17 10:27:53;;;;;;;8.02;5.90;;;;;;;;;;5113742;28;20194;-79
2023/04/17 10:30:21;;;;;;;6.78;4.88;;;;;;;;;;5101107;27;20185;-79
2023/04/17 10:33:03;;;;;;;6.72;4.28;;;;;;;;;;5113618;28;20217;-80
2023/04/17 10:35:36;;;;;;;7.22;5.07;;;;;;;;;;5113023;28;20290;-79
2023/04/17 10:38:07;;;;;;;5.72;4.43;;;;;;;;;;5112901;28;20221;-79
2023/04/17 10:40:34;;;;;;;7.10;4.97;;;;;;;;;;5110310;28;20651;-79
2023/04/17 10:43:03;;;;;;;6.57;4.22;;;;;;;;;;5120872;27;20202;-79
2023/04/17 10:45:45;;;;;;;7.05;3.70;;;;;;;;;;5112293;28;20198;-79
2023/04/17 10:48:20;;;;;;;6.25;3.92;;;;;;;;;;5111569;28;20659;-79
2023/04/17 10:50:48;;;;;;;5.72;3.88;;;;;;;;;;5097306;28;20255;-78
2023/04/17 10:53:34;;;;;;;7.05;4.03;;;;;;;;;;5113296;28;20232;-78
2023/04/17 10:56:03;;;;;;;7.22;4.78;;;;;;;;;;5110501;28;20233;-79
2023/04/17 10:58:30;;;;;;;9.65;5.72;;;;;;;;;;5100342;28;20202;-81
2023/04/17 11:01:03;;;;;;;7.18;5.43;;;;;;;;;;5108948;28;20205;-79
2023/04/17 11:03:30;;;;;;;6.85;4.93;;;;;;;;;;5117054;27;20212;-79
2023/04/17 11:05:59;;;;;;;7.60;6.05;;;;;;;;;;5111157;28;20670;-80
2023/04/17 11:08:27;;;;;;;7.47;6.22;;;;;;;;;;5112383;27;20743;-79
2023/04/17 11:10:54;;;;;;;7.90;5.95;;;;;;;;;;5100838;28;20233;-79
2023/04/17 11:13:21;;;;;;;7.88;6.35;;;;;;;;;;5110562;28;20299;-79
2023/04/17 11:15:51;;;;;;;6.50;5.90;;;;;;;;;;5105655;28;20209;-79
2023/04/17 11:18:18;;;;;;;6.55;5.95;;;;;;;;;;5116595;28;20580;-81
2023/04/17 11:20:45;;;;;;;6.95;5.28;;;;;;;;;;5112572;28;20185;-79
2023/04/17 11:23:14;;;;;;;6.28;5.68;;;;;;;;;;5111818;28;20198;-80
2023/04/17 11:25:41;;;;;;;7.97;5.95;;;;;;;;;;5113142;28;20194;-81
2023/04/17 11:28:09;;;;;;;6.65;5.88;;;;;;;;;;5111308;28;20197;-80
2023/04/17 11:30:39;;;;;;;7.35;6.18;;;;;;;;;;5108946;28;20254;-79
2023/04/17 11:33:07;;;;;;;7.50;5.60;;;;;;;;;;5109925;28;20208;-78
2023/04/17 11:35:35;;;;;;;6.68;5.40;;;;;;;;;;5111750;28;20754;-79
2023/04/17 11:38:10;;;;;;;5.88;5.28;;;;;;;;;;5110133;28;20300;-80
2023/04/17 11:40:42;;;;;;;7.10;5.55;;;;;;;;;;5111095;28;20220;-79
2023/04/17 11:43:09;;;;;;;5.93;5.07;;;;;;;;;;5109303;28;20202;-80
2023/04/17 11:45:37;;;;;;;5.53;5.00;;;;;;;;;;5111718;28;20225;-79
2023/04/17 11:48:05;;;;;;;5.82;4.80;;;;;;;;;;5112411;28;20604;-79
2023/04/17 11:50:32;;;;;;;7.05;4.50;;;;;;;;;;5112186;27;20198;-78
2023/04/17 11:53:00;;;;;;;5.18;4.68;;;;;;;;;;5108225;28;20198;-79
2023/04/17 11:55:30;;;;;;;6.10;4.72;;;;;;;;;;5111684;28;20247;-82
2023/04/17 11:57:59;;;;;;;7.00;4.90;;;;;;;;;;5112169;28;20236;-79
2023/04/17 12:00:28;;;;;;;8.32;5.57;;;;;;;;;;5111946;28;20229;-80
2023/04/17 12:02:57;;;;;;;6.15;5.20;;;;;;;;;;5111880;28;20250;-81
2023/04/17 12:05:25;;;;;;;6.55;5.78;;;;;;;;;;5111173;28;20212;-80
2023/04/17 12:08:01;;;;;;;6.25;5.20;;;;;;;;;;5115082;27;20202;-80
2023/04/17 12:10:42;;;;;;;6.03;5.10;;;;;;;;;;5111169;28;20202;-80
2023/04/17 12:13:11;;;;;;;5.90;5.30;;;;;;;;;;5109494;28;20284;-80
2023/04/17 12:15:39;;;;;;;7.05;5.68;;;;;;;;;;5110641;28;20193;-80
2023/04/17 12:18:08;;;;;;;5.80;4.45;;;;;;;;;;5108876;28;20765;-81
2023/04/17 12:20:36;;;;;;;8.65;5.15;;;;;;;;;;5109550;28;20205;-80
2023/04/17 12:23:03;;;;;;;7.03;5.28;;;;;;;;;;5107806;28;20376;-79
2023/04/17 12:25:31;;;;;;;7.00;5.35;;;;;;;;;;5113458;27;20185;-79
2023/04/17 12:27:59;;;;;;;6.20;4.40;;;;;;;;;;5108659;28;20288;-81
2023/04/17 12:30:28;;;;;;;6.45;5.32;;;;;;;;;;5110708;28;20197;-80
2023/04/17 12:32:55;;;;;;;8.48;5.38;;;;;;;;;;5110023;28;20200;-79
2023/04/17 12:35:23;;;;;;;6.43;4.60;;;;;;;;;;5109763;28;20637;-81
2023/04/17 12:37:51;;;;;;;5.18;4.68;;;;;;;;;;5111112;28;20281;-80
2023/04/17 12:40:18;;;;;;;5.28;4.68;;;;;;;;;;5111887;28;20221;-80
2023/04/17 12:42:46;;;;;;;6.30;4.50;;;;;;;;;;5107345;28;21625;-81
2023/04/17 12:45:14;;;;;;;5.38;4.30;;;;;;;;;;5107924;28;20221;-81
2023/04/17 12:47:42;;;;;;;7.40;4.05;;;;;;;;;;5110507;28;20197;-80
2023/04/17 12:50:10;;;;;;;6.30;4.18;;;;;;;;;;5110468;28;20276;-81
2023/04/17 12:52:37;;;;;;;6.93;4.15;;;;;;;;;;5112930;28;20193;-80
2023/04/17 12:55:06;;;;;;;5.07;4.50;;;;;;;;;;5114959;28;20291;-81
2023/04/17 12:57:33;;;;;;;5.10;4.18;;;;;;;;;;5109786;27;20312;-81
2023/04/17 13:00:04;;;;;;;4.00;3.60;;;;;;;;;;5113611;28;20232;-81
2023/04/17 13:02:31;;;;;;;11.00;4.20;;;;;;;;;;5113784;28;20658;-81
2023/04/17 13:05:00;;;;;;;6.40;3.80;;;;;;;;;;5113904;28;20625;-80
2023/04/17 13:07:27;;;;;;;5.25;4.20;;;;;;;;;;5115199;27;20284;-81
2023/04/17 13:09:55;;;;;;;5.70;4.00;;;;;;;;;;5114352;28;20200;-81
2023/04/17 13:12:22;;;;;;;6.70;3.55;;;;;;;;;;5114202;28;20280;-81
2023/04/17 13:14:49;;;;;;;5.45;3.50;;;;;;;;;;5115283;27;20247;-80
2023/04/17 13:17:16;;;;;;;5.20;3.22;;;;;;;;;;5111170;28;20300;-81
2023/04/17 13:19:44;;;;;;;6.57;3.70;;;;;;;;;;5114061;28;20630;-81
2023/04/17 13:22:12;;;;;;;9.18;3.40;;;;;;;;;;5114364;28;20194;-82
2023/04/17 13:24:40;;;;;;;5.03;3.40;;;;;;;;;;5114888;28;20222;-82
2023/04/17 13:27:08;;;;;;;6.05;3.63;;;;;;;;;;5114530;28;20220;-80
2023/04/17 13:29:35;;;;;;;6.15;4.50;;;;;;;;;;5112926;28;20194;-80
2023/04/17 13:32:03;;;;;;;4.55;4.07;;;;;;;;;;5114715;27;20305;-80
2023/04/17 13:34:30;;;;;;;3.78;3.10;;;;;;;;;;5113205;28;20273;-81
2023/04/17 13:36:57;;;;;;;5.22;3.78;;;;;;;;;;5111271;28;20569;-81
2023/04/17 13:39:26;;;;;;;4.75;3.03;;;;;;;;;;5110483;28;20232;-81
2023/04/17 13:41:53;;;;;;;5.40;3.63;;;;;;;;;;5111687;28;20252;-79
2023/04/17 13:44:21;;;;;;;3.88;3.42;;;;;;;;;;5113293;28;20227;-80
2023/04/17 13:46:48;;;;;;;4.18;3.05;;;;;;;;;;5113087;28;20230;-80
2023/04/17 13:49:15;;;;;;;8.90;3.50;;;;;;;;;;5113133;27;20254;-80
2023/04/17 13:51:43;;;;;;;9.45;4.22;;;;;;;;;;5113026;27;20281;-81
2023/04/17 13:54:10;;;;;;;4.40;3.33;;;;;;;;;;5112723;28;20198;-81
2023/04/17 13:56:39;;;;;;;4.40;3.47;;;;;;;;;;5113595;27;20193;-81
2023/04/17 13:59:06;;;;;;;4.55;3.92;;;;;;;;;;5111242;28;20853;-80
2023/04/17 14:01:33;;;;;;;3.60;3.22;;;;;;;;;;5107463;28;20278;-80
2023/04/17 14:04:01;;;;;;;4.50;3.40;;;;;;;;;;5112277;28;20202;-81
2023/04/17 14:06:31;;;;;;;4.82;3.20;;;;;;;;;;5113352;27;20581;-80
2023/04/17 14:08:59;;;;;;;6.55;3.15;;;;;;;;;;5112709;28;20215;-81
2023/04/17 14:11:26;;;;;;;3.97;2.90;;;;;;;;;;5112872;28;20289;-80
2023/04/17 14:13:58;;;;;;;3.60;3.30;;;;;;;;;;5109673;28;20644;-81
2023/04/17 14:16:26;;;;;;;4.75;3.58;;;;;;;;;;5112542;28;20194;-80
2023/04/17 14:18:53;;;;;;;4.22;3.33;;;;;;;;;;5107969;28;20302;-80
2023/04/17 14:21:21;;;;;;;5.78;3.70;;;;;;;;;;5108131;28;20266;-80
2023/04/17 14:23:50;;;;;;;3.50;3.15;;;;;;;;;;5113700;27;20194;-81
2023/04/17 14:26:17;;;;;;;3.17;2.88;;;;;;;;;;5109735;28;20208;-81
2023/04/17 14:28:45;;;;;;;4.93;3.35;;;;;;;;;;5109259;28;20197;-80
2023/04/17 14:31:13;;;;;;;5.22;3.50;;;;;;;;;;5109507;28;20273;-79
2023/04/17 14:33:40;;;;;;;4.30;3.33;;;;;;;;;;5111718;28;20725;-79
2023/04/17 14:36:08;;;;;;;3.92;2.88;;;;;;;;;;5108840;28;20286;-80
2023/04/17 14:38:35;;;;;;;4.07;3.10;;;;;;;;;;5110479;27;20221;-80